sensor_id;sensor_type;location;lat;lon;timestamp;P1;durP1;ratioP1;P2;durP2;ratioP2
39782;SDS011;25462;51.164;17.100;2023-06-04T00:02:44;6.20;;;2.10;;
39782;SDS011;25462;51.164;17.100;2023-06-04T00:07:49;5.20;;;2.10;;
39782;SDS011;25462;51.164;17.100;2023-06-04T00:12:53;7.90;;;2.10;;
39782;SDS011;25462;51.164;17.100;2023-06-04T00:17:57;6.50;;;1.90;;
39782;SDS011;25462;51.164;17.100;2023-06-04T00:23:01;4.60;;;2.00;;
39782;SDS011;25462;51.164;17.100;2023-06-04T00:28:08;8.50;;;2.20;;
39782;SDS011;25462;51.164;17.100;2023-06-04T00:33:12;4.90;;;1.60;;
39782;SDS011;25462;51.164;17.100;2023-06-04T00:38:16;4.90;;;1.80;;
39782;SDS011;25462;51.164;17.100;2023-06-04T00:43:20;6.20;;;2.30;;
39782;SDS011;25462;51.164;17.100;2023-06-04T00:48:24;5.20;;;2.20;;
39782;SDS011;25462;51.164;17.100;2023-06-04T00:53:31;5.70;;;2.60;;
39782;SDS011;25462;51.164;17.100;2023-06-04T00:58:38;7.30;;;2.30;;
39782;SDS011;25462;51.164;17.100;2023-06-04T01:03:45;4.40;;;2.00;;
39782;SDS011;25462;51.164;17.100;2023-06-04T01:08:50;6.10;;;2.30;;
39782;SDS011;25462;51.164;17.100;2023-06-04T01:13:57;7.70;;;2.60;;
39782;SDS011;25462;51.164;17.100;2023-06-04T01:19:03;10.30;;;2.60;;
39782;SDS011;25462;51.164;17.100;2023-06-04T01:24:12;10.30;;;2.90;;
39782;SDS011;25462;51.164;17.100;2023-06-04T01:29:17;9.90;;;3.00;;
39782;SDS011;25462;51.164;17.100;2023-06-04T01:34:22;5.90;;;2.40;;
39782;SDS011;25462;51.164;17.100;2023-06-04T01:39:28;5.70;;;2.40;;
39782;SDS011;25462;51.164;17.100;2023-06-04T01:44:32;7.40;;;2.40;;
39782;SDS011;25462;51.164;17.100;2023-06-04T01:49:36;6.00;;;2.60;;
39782;SDS011;25462;51.164;17.100;2023-06-04T01:54:42;4.60;;;2.10;;
39782;SDS011;25462;51.164;17.100;2023-06-04T01:59:47;5.00;;;2.00;;
39782;SDS011;25462;51.164;17.100;2023-06-04T02:04:54;5.80;;;2.70;;
39782;SDS011;25462;51.164;17.100;2023-06-04T02:09:59;8.70;;;2.40;;
39782;SDS011;25462;51.164;17.100;2023-06-04T02:15:03;6.20;;;2.20;;
39782;SDS011;25462;51.164;17.100;2023-06-04T02:20:08;6.70;;;2.60;;
39782;SDS011;25462;51.164;17.100;2023-06-04T02:25:13;6.30;;;2.70;;
39782;SDS011;25462;51.164;17.100;2023-06-04T02:30:17;6.00;;;2.80;;
39782;SDS011;25462;51.164;17.100;2023-06-04T02:35:22;5.90;;;2.70;;
39782;SDS011;25462;51.164;17.100;2023-06-04T02:40:27;6.20;;;2.60;;
39782;SDS011;25462;51.164;17.100;2023-06-04T02:45:32;7.60;;;2.90;;
39782;SDS011;25462;51.164;17.100;2023-06-04T02:50:36;6.30;;;2.30;;
39782;SDS011;25462;51.164;17.100;2023-06-04T02:55:40;5.50;;;2.30;;
39782;SDS011;25462;51.164;17.100;2023-06-04T03:00:45;7.50;;;2.60;;
39782;SDS011;25462;51.164;17.100;2023-06-04T03:05:50;6.20;;;2.60;;
39782;SDS011;25462;51.164;17.100;2023-06-04T03:10:56;6.20;;;2.50;;
39782;SDS011;25462;51.164;17.100;2023-06-04T03:16:01;6.50;;;2.70;;
39782;SDS011;25462;51.164;17.100;2023-06-04T03:21:06;5.90;;;2.90;;
39782;SDS011;25462;51.164;17.100;2023-06-04T03:26:13;7.60;;;3.00;;
39782;SDS011;25462;51.164;17.100;2023-06-04T03:31:18;6.90;;;3.20;;
39782;SDS011;25462;51.164;17.100;2023-06-04T03:36:24;5.10;;;2.80;;
39782;SDS011;25462;51.164;17.100;2023-06-04T03:41:37;7.50;;;3.30;;
39782;SDS011;25462;51.164;17.100;2023-06-04T03:46:44;5.60;;;2.60;;
39782;SDS011;25462;51.164;17.100;2023-06-04T03:51:50;5.50;;;2.30;;
39782;SDS011;25462;51.164;17.100;2023-06-04T03:56:55;5.40;;;2.70;;
39782;SDS011;25462;51.164;17.100;2023-06-04T04:01:59;6.40;;;2.60;;
39782;SDS011;25462;51.164;17.100;2023-06-04T04:07:03;5.00;;;2.20;;
39782;SDS011;25462;51.164;17.100;2023-06-04T04:12:08;5.50;;;3.00;;
39782;SDS011;25462;51.164;17.100;2023-06-04T04:17:14;6.40;;;2.70;;
39782;SDS011;25462;51.164;17.100;2023-06-04T04:22:18;5.70;;;2.60;;
39782;SDS011;25462;51.164;17.100;2023-06-04T04:27:23;10.70;;;5.70;;
39782;SDS011;25462;51.164;17.100;2023-06-04T04:32:28;8.40;;;3.40;;
39782;SDS011;25462;51.164;17.100;2023-06-04T04:37:33;5.40;;;3.20;;
39782;SDS011;25462;51.164;17.100;2023-06-04T04:42:38;4.80;;;2.90;;
39782;SDS011;25462;51.164;17.100;2023-06-04T04:47:44;7.80;;;3.10;;
39782;SDS011;25462;51.164;17.100;2023-06-04T04:52:49;4.50;;;2.70;;
39782;SDS011;25462;51.164;17.100;2023-06-04T04:57:53;5.90;;;2.90;;
39782;SDS011;25462;51.164;17.100;2023-06-04T05:02:58;5.50;;;3.10;;
39782;SDS011;25462;51.164;17.100;2023-06-04T05:08:02;4.70;;;2.60;;
39782;SDS011;25462;51.164;17.100;2023-06-04T05:13:13;4.30;;;2.60;;
39782;SDS011;25462;51.164;17.100;2023-06-04T05:18:25;4.20;;;2.80;;
39782;SDS011;25462;51.164;17.100;2023-06-04T05:23:35;5.00;;;2.60;;
39782;SDS011;25462;51.164;17.100;2023-06-04T05:28:41;8.30;;;3.50;;
39782;SDS011;25462;51.164;17.100;2023-06-04T05:33:48;7.80;;;2.90;;
39782;SDS011;25462;51.164;17.100;2023-06-04T05:38:54;6.00;;;2.20;;
39782;SDS011;25462;51.164;17.100;2023-06-04T05:49:15;5.70;;;2.20;;
39782;SDS011;25462;51.164;17.100;2023-06-04T05:54:20;5.50;;;2.50;;
39782;SDS011;25462;51.164;17.100;2023-06-04T05:59:25;5.70;;;2.80;;
39782;SDS011;25462;51.164;17.100;2023-06-04T06:04:29;5.80;;;2.50;;
39782;SDS011;25462;51.164;17.100;2023-06-04T06:09:34;7.00;;;2.30;;
39782;SDS011;25462;51.164;17.100;2023-06-04T06:14:39;4.00;;;2.20;;
39782;SDS011;25462;51.164;17.100;2023-06-04T06:19:47;7.60;;;2.60;;
39782;SDS011;25462;51.164;17.100;2023-06-04T06:24:51;5.50;;;2.60;;
39782;SDS011;25462;51.164;17.100;2023-06-04T06:29:55;6.20;;;2.60;;
39782;SDS011;25462;51.164;17.100;2023-06-04T06:34:59;7.10;;;2.50;;
39782;SDS011;25462;51.164;17.100;2023-06-04T06:40:03;9.50;;;2.80;;
39782;SDS011;25462;51.164;17.100;2023-06-04T06:45:07;6.90;;;2.40;;
39782;SDS011;25462;51.164;17.100;2023-06-04T06:50:11;5.80;;;2.60;;
39782;SDS011;25462;51.164;17.100;2023-06-04T06:55:15;7.40;;;2.10;;
39782;SDS011;25462;51.164;17.100;2023-06-04T07:00:19;4.40;;;2.10;;
39782;SDS011;25462;51.164;17.100;2023-06-04T07:05:23;6.40;;;2.30;;
39782;SDS011;25462;51.164;17.100;2023-06-04T07:10:29;3.50;;;1.90;;
39782;SDS011;25462;51.164;17.100;2023-06-04T07:15:33;3.70;;;1.80;;
39782;SDS011;25462;51.164;17.100;2023-06-04T07:20:37;3.70;;;2.00;;
39782;SDS011;25462;51.164;17.100;2023-06-04T07:25:45;6.80;;;2.10;;
39782;SDS011;25462;51.164;17.100;2023-06-04T07:30:50;4.10;;;1.90;;
39782;SDS011;25462;51.164;17.100;2023-06-04T07:35:54;4.00;;;1.90;;
39782;SDS011;25462;51.164;17.100;2023-06-04T07:40:58;3.90;;;1.90;;
39782;SDS011;25462;51.164;17.100;2023-06-04T07:46:02;4.40;;;1.70;;
39782;SDS011;25462;51.164;17.100;2023-06-04T07:51:07;5.80;;;2.00;;
39782;SDS011;25462;51.164;17.100;2023-06-04T07:56:12;3.70;;;1.60;;
39782;SDS011;25462;51.164;17.100;2023-06-04T08:01:16;5.00;;;1.90;;
39782;SDS011;25462;51.164;17.100;2023-06-04T08:06:20;5.60;;;2.10;;
39782;SDS011;25462;51.164;17.100;2023-06-04T08:11:24;5.00;;;1.80;;
39782;SDS011;25462;51.164;17.100;2023-06-04T08:16:28;5.00;;;2.00;;
39782;SDS011;25462;51.164;17.100;2023-06-04T08:21:34;5.30;;;1.50;;
39782;SDS011;25462;51.164;17.100;2023-06-04T08:26:38;4.40;;;1.60;;
39782;SDS011;25462;51.164;17.100;2023-06-04T08:31:47;3.90;;;1.60;;
39782;SDS011;25462;51.164;17.100;2023-06-04T08:36:52;5.70;;;1.70;;
39782;SDS011;25462;51.164;17.100;2023-06-04T08:41:56;2.80;;;1.40;;
39782;SDS011;25462;51.164;17.100;2023-06-04T08:47:09;3.20;;;1.40;;
39782;SDS011;25462;51.164;17.100;2023-06-04T08:52:15;4.10;;;1.30;;
39782;SDS011;25462;51.164;17.100;2023-06-04T08:57:19;4.10;;;1.60;;
39782;SDS011;25462;51.164;17.100;2023-06-04T09:02:23;5.70;;;1.80;;
39782;SDS011;25462;51.164;17.100;2023-06-04T09:07:31;3.50;;;1.50;;
39782;SDS011;25462;51.164;17.100;2023-06-04T09:12:36;2.30;;;1.20;;
39782;SDS011;25462;51.164;17.100;2023-06-04T09:17:41;5.60;;;1.30;;
39782;SDS011;25462;51.164;17.100;2023-06-04T09:22:45;4.00;;;1.50;;
39782;SDS011;25462;51.164;17.100;2023-06-04T09:27:49;3.60;;;1.60;;
39782;SDS011;25462;51.164;17.100;2023-06-04T09:32:53;4.60;;;1.50;;
39782;SDS011;25462;51.164;17.100;2023-06-04T09:37:57;3.20;;;1.50;;
39782;SDS011;25462;51.164;17.100;2023-06-04T09:43:03;4.60;;;1.30;;
39782;SDS011;25462;51.164;17.100;2023-06-04T09:48:07;3.10;;;1.40;;
39782;SDS011;25462;51.164;17.100;2023-06-04T09:53:15;5.00;;;1.60;;
39782;SDS011;25462;51.164;17.100;2023-06-04T09:58:22;2.80;;;1.30;;
39782;SDS011;25462;51.164;17.100;2023-06-04T10:03:36;2.50;;;1.20;;
39782;SDS011;25462;51.164;17.100;2023-06-04T10:08:42;2.90;;;1.40;;
39782;SDS011;25462;51.164;17.100;2023-06-04T10:13:53;4.30;;;1.50;;
39782;SDS011;25462;51.164;17.100;2023-06-04T10:18:59;2.50;;;1.40;;
39782;SDS011;25462;51.164;17.100;2023-06-04T10:24:04;4.10;;;1.70;;
39782;SDS011;25462;51.164;17.100;2023-06-04T10:29:09;6.20;;;1.40;;
39782;SDS011;25462;51.164;17.100;2023-06-04T10:34:14;7.30;;;1.50;;
39782;SDS011;25462;51.164;17.100;2023-06-04T10:39:25;4.00;;;1.10;;
39782;SDS011;25462;51.164;17.100;2023-06-04T10:44:43;2.50;;;1.10;;
39782;SDS011;25462;51.164;17.100;2023-06-04T10:49:49;4.30;;;1.40;;
39782;SDS011;25462;51.164;17.100;2023-06-04T10:55:03;3.60;;;1.40;;
39782;SDS011;25462;51.164;17.100;2023-06-04T11:00:08;3.30;;;1.40;;
39782;SDS011;25462;51.164;17.100;2023-06-04T11:05:13;9.80;;;1.70;;
39782;SDS011;25462;51.164;17.100;2023-06-04T11:10:17;3.60;;;1.40;;
39782;SDS011;25462;51.164;17.100;2023-06-04T11:15:21;3.50;;;1.40;;
39782;SDS011;25462;51.164;17.100;2023-06-04T11:20:25;4.10;;;1.50;;
39782;SDS011;25462;51.164;17.100;2023-06-04T11:25:30;2.50;;;1.30;;
39782;SDS011;25462;51.164;17.100;2023-06-04T11:30:36;3.90;;;1.60;;
39782;SDS011;25462;51.164;17.100;2023-06-04T11:35:41;3.30;;;1.70;;
39782;SDS011;25462;51.164;17.100;2023-06-04T11:40:58;2.20;;;1.40;;
39782;SDS011;25462;51.164;17.100;2023-06-04T11:46:05;3.00;;;1.60;;
39782;SDS011;25462;51.164;17.100;2023-06-04T11:51:13;3.00;;;1.40;;
39782;SDS011;25462;51.164;17.100;2023-06-04T11:56:17;3.50;;;2.10;;
39782;SDS011;25462;51.164;17.100;2023-06-04T12:01:21;2.40;;;1.40;;
39782;SDS011;25462;51.164;17.100;2023-06-04T12:06:27;3.10;;;1.50;;
39782;SDS011;25462;51.164;17.100;2023-06-04T12:11:32;4.50;;;1.90;;
39782;SDS011;25462;51.164;17.100;2023-06-04T12:16:37;3.40;;;1.70;;
39782;SDS011;25462;51.164;17.100;2023-06-04T12:21:42;3.00;;;1.80;;
39782;SDS011;25462;51.164;17.100;2023-06-04T12:26:46;6.60;;;2.10;;
39782;SDS011;25462;51.164;17.100;2023-06-04T12:31:51;4.10;;;1.50;;
39782;SDS011;25462;51.164;17.100;2023-06-04T12:37:16;3.50;;;1.60;;
39782;SDS011;25462;51.164;17.100;2023-06-04T12:42:20;3.40;;;1.60;;
39782;SDS011;25462;51.164;17.100;2023-06-04T12:47:24;3.50;;;1.40;;
39782;SDS011;25462;51.164;17.100;2023-06-04T12:52:28;4.80;;;2.00;;
39782;SDS011;25462;51.164;17.100;2023-06-04T12:57:32;2.40;;;1.40;;
39782;SDS011;25462;51.164;17.100;2023-06-04T13:02:36;3.30;;;1.50;;
39782;SDS011;25462;51.164;17.100;2023-06-04T13:07:40;5.20;;;2.20;;
39782;SDS011;25462;51.164;17.100;2023-06-04T13:12:44;5.40;;;1.70;;
39782;SDS011;25462;51.164;17.100;2023-06-04T13:17:48;4.20;;;1.50;;
39782;SDS011;25462;51.164;17.100;2023-06-04T13:22:53;3.50;;;1.50;;
39782;SDS011;25462;51.164;17.100;2023-06-04T13:27:57;3.80;;;1.40;;
39782;SDS011;25462;51.164;17.100;2023-06-04T13:33:01;4.40;;;1.50;;
39782;SDS011;25462;51.164;17.100;2023-06-04T13:38:05;3.00;;;1.40;;
39782;SDS011;25462;51.164;17.100;2023-06-04T13:43:10;2.50;;;1.40;;
39782;SDS011;25462;51.164;17.100;2023-06-04T13:48:14;9.50;;;2.10;;
39782;SDS011;25462;51.164;17.100;2023-06-04T13:53:20;3.90;;;1.40;;
39782;SDS011;25462;51.164;17.100;2023-06-04T13:58:25;3.10;;;1.40;;
39782;SDS011;25462;51.164;17.100;2023-06-04T14:03:30;4.00;;;1.70;;
39782;SDS011;25462;51.164;17.100;2023-06-04T14:08:34;2.50;;;1.50;;
39782;SDS011;25462;51.164;17.100;2023-06-04T14:13:38;2.00;;;1.70;;
39782;SDS011;25462;51.164;17.100;2023-06-04T14:18:42;3.60;;;1.60;;
39782;SDS011;25462;51.164;17.100;2023-06-04T14:23:47;3.20;;;1.60;;
39782;SDS011;25462;51.164;17.100;2023-06-04T14:28:53;3.10;;;1.60;;
39782;SDS011;25462;51.164;17.100;2023-06-04T14:33:58;2.80;;;1.60;;
39782;SDS011;25462;51.164;17.100;2023-06-04T14:39:05;6.30;;;1.60;;
39782;SDS011;25462;51.164;17.100;2023-06-04T14:44:10;3.40;;;1.50;;
39782;SDS011;25462;51.164;17.100;2023-06-04T14:49:16;3.60;;;1.70;;
39782;SDS011;25462;51.164;17.100;2023-06-04T14:54:20;3.40;;;1.70;;
39782;SDS011;25462;51.164;17.100;2023-06-04T14:59:24;3.20;;;1.40;;
39782;SDS011;25462;51.164;17.100;2023-06-04T15:04:28;3.70;;;1.60;;
39782;SDS011;25462;51.164;17.100;2023-06-04T15:09:33;4.70;;;1.50;;
39782;SDS011;25462;51.164;17.100;2023-06-04T15:14:37;2.50;;;1.40;;
39782;SDS011;25462;51.164;17.100;2023-06-04T15:19:41;3.70;;;1.70;;
39782;SDS011;25462;51.164;17.100;2023-06-04T15:24:45;3.10;;;1.50;;
39782;SDS011;25462;51.164;17.100;2023-06-04T15:29:49;3.90;;;1.70;;
39782;SDS011;25462;51.164;17.100;2023-06-04T15:34:53;4.90;;;1.60;;
39782;SDS011;25462;51.164;17.100;2023-06-04T15:39:56;3.00;;;1.40;;
39782;SDS011;25462;51.164;17.100;2023-06-04T15:45:03;3.20;;;1.70;;
39782;SDS011;25462;51.164;17.100;2023-06-04T15:50:07;3.40;;;1.50;;
39782;SDS011;25462;51.164;17.100;2023-06-04T15:55:11;3.20;;;1.60;;
39782;SDS011;25462;51.164;17.100;2023-06-04T16:00:15;4.70;;;1.70;;
39782;SDS011;25462;51.164;17.100;2023-06-04T16:05:20;3.40;;;2.20;;
39782;SDS011;25462;51.164;17.100;2023-06-04T16:10:24;4.50;;;1.90;;
39782;SDS011;25462;51.164;17.100;2023-06-04T16:15:34;3.30;;;1.90;;
39782;SDS011;25462;51.164;17.100;2023-06-04T16:20:38;3.30;;;1.60;;
39782;SDS011;25462;51.164;17.100;2023-06-04T16:25:42;2.80;;;1.70;;
39782;SDS011;25462;51.164;17.100;2023-06-04T16:30:46;4.70;;;1.60;;
39782;SDS011;25462;51.164;17.100;2023-06-04T16:35:52;5.00;;;1.70;;
39782;SDS011;25462;51.164;17.100;2023-06-04T16:40:56;3.50;;;1.80;;
39782;SDS011;25462;51.164;17.100;2023-06-04T16:46:00;2.40;;;1.50;;
39782;SDS011;25462;51.164;17.100;2023-06-04T16:51:07;3.10;;;1.70;;
39782;SDS011;25462;51.164;17.100;2023-06-04T16:56:12;3.00;;;1.90;;
39782;SDS011;25462;51.164;17.100;2023-06-04T17:01:16;5.30;;;2.10;;
39782;SDS011;25462;51.164;17.100;2023-06-04T17:06:21;4.70;;;2.40;;
39782;SDS011;25462;51.164;17.100;2023-06-04T17:11:26;5.00;;;2.30;;
39782;SDS011;25462;51.164;17.100;2023-06-04T17:16:32;2.30;;;1.90;;
39782;SDS011;25462;51.164;17.100;2023-06-04T17:21:37;2.80;;;1.90;;
39782;SDS011;25462;51.164;17.100;2023-06-04T17:26:42;2.60;;;2.00;;
39782;SDS011;25462;51.164;17.100;2023-06-04T17:31:48;4.60;;;2.30;;
39782;SDS011;25462;51.164;17.100;2023-06-04T17:36:56;3.70;;;2.10;;
39782;SDS011;25462;51.164;17.100;2023-06-04T17:42:03;3.30;;;1.80;;
39782;SDS011;25462;51.164;17.100;2023-06-04T17:47:08;4.30;;;2.10;;
39782;SDS011;25462;51.164;17.100;2023-06-04T17:52:13;3.50;;;1.70;;
39782;SDS011;25462;51.164;17.100;2023-06-04T17:57:18;4.50;;;1.80;;
39782;SDS011;25462;51.164;17.100;2023-06-04T18:02:33;4.10;;;1.80;;
39782;SDS011;25462;51.164;17.100;2023-06-04T18:07:38;2.60;;;1.50;;
39782;SDS011;25462;51.164;17.100;2023-06-04T18:12:43;5.90;;;1.70;;
39782;SDS011;25462;51.164;17.100;2023-06-04T18:17:49;3.90;;;1.60;;
39782;SDS011;25462;51.164;17.100;2023-06-04T18:22:53;3.90;;;1.50;;
39782;SDS011;25462;51.164;17.100;2023-06-04T18:27:57;4.90;;;1.60;;
39782;SDS011;25462;51.164;17.100;2023-06-04T18:33:01;3.90;;;1.80;;
39782;SDS011;25462;51.164;17.100;2023-06-04T18:38:05;4.60;;;1.60;;
39782;SDS011;25462;51.164;17.100;2023-06-04T18:43:10;6.00;;;2.00;;
39782;SDS011;25462;51.164;17.100;2023-06-04T18:48:14;6.00;;;3.10;;
39782;SDS011;25462;51.164;17.100;2023-06-04T18:53:19;6.60;;;2.50;;
39782;SDS011;25462;51.164;17.100;2023-06-04T18:58:24;5.20;;;2.10;;
39782;SDS011;25462;51.164;17.100;2023-06-04T19:03:28;5.70;;;2.00;;
39782;SDS011;25462;51.164;17.100;2023-06-04T19:08:33;4.60;;;1.70;;
39782;SDS011;25462;51.164;17.100;2023-06-04T19:13:38;6.20;;;1.80;;
39782;SDS011;25462;51.164;17.100;2023-06-04T19:18:43;4.50;;;1.50;;
39782;SDS011;25462;51.164;17.100;2023-06-04T19:23:47;3.00;;;1.60;;
39782;SDS011;25462;51.164;17.100;2023-06-04T19:28:52;2.70;;;1.60;;
39782;SDS011;25462;51.164;17.100;2023-06-04T19:33:56;3.80;;;2.00;;
39782;SDS011;25462;51.164;17.100;2023-06-04T19:39:03;6.20;;;1.70;;
39782;SDS011;25462;51.164;17.100;2023-06-04T19:44:09;6.50;;;1.40;;
39782;SDS011;25462;51.164;17.100;2023-06-04T19:49:14;3.30;;;1.60;;
39782;SDS011;25462;51.164;17.100;2023-06-04T19:54:18;2.80;;;1.40;;
39782;SDS011;25462;51.164;17.100;2023-06-04T19:59:23;4.40;;;1.90;;
39782;SDS011;25462;51.164;17.100;2023-06-04T20:04:28;3.30;;;1.70;;
39782;SDS011;25462;51.164;17.100;2023-06-04T20:09:33;4.60;;;1.60;;
39782;SDS011;25462;51.164;17.100;2023-06-04T20:14:37;3.70;;;1.90;;
39782;SDS011;25462;51.164;17.100;2023-06-04T20:19:41;7.60;;;1.90;;
39782;SDS011;25462;51.164;17.100;2023-06-04T20:24:45;4.00;;;1.60;;
39782;SDS011;25462;51.164;17.100;2023-06-04T20:29:51;4.30;;;1.70;;
39782;SDS011;25462;51.164;17.100;2023-06-04T20:34:56;5.20;;;1.60;;
39782;SDS011;25462;51.164;17.100;2023-06-04T20:40:01;6.20;;;1.90;;
39782;SDS011;25462;51.164;17.100;2023-06-04T20:45:07;3.60;;;1.60;;
39782;SDS011;25462;51.164;17.100;2023-06-04T20:50:11;7.10;;;2.10;;
39782;SDS011;25462;51.164;17.100;2023-06-04T20:55:16;4.10;;;2.10;;
39782;SDS011;25462;51.164;17.100;2023-06-04T21:00:20;3.40;;;1.60;;
39782;SDS011;25462;51.164;17.100;2023-06-04T21:05:24;6.80;;;2.10;;
39782;SDS011;25462;51.164;17.100;2023-06-04T21:10:28;4.00;;;1.50;;
39782;SDS011;25462;51.164;17.100;2023-06-04T21:15:32;7.50;;;2.80;;
39782;SDS011;25462;51.164;17.100;2023-06-04T21:20:36;5.30;;;1.90;;
39782;SDS011;25462;51.164;17.100;2023-06-04T21:25:42;5.90;;;2.00;;
39782;SDS011;25462;51.164;17.100;2023-06-04T21:30:46;2.90;;;1.50;;
39782;SDS011;25462;51.164;17.100;2023-06-04T21:35:50;6.30;;;1.90;;
39782;SDS011;25462;51.164;17.100;2023-06-04T21:40:53;3.50;;;1.60;;
39782;SDS011;25462;51.164;17.100;2023-06-04T21:45:58;4.60;;;1.80;;
39782;SDS011;25462;51.164;17.100;2023-06-04T21:51:02;5.50;;;1.80;;
39782;SDS011;25462;51.164;17.100;2023-06-04T21:56:07;3.70;;;1.60;;
39782;SDS011;25462;51.164;17.100;2023-06-04T22:01:11;5.50;;;2.30;;
39782;SDS011;25462;51.164;17.100;2023-06-04T22:06:18;5.80;;;2.10;;
39782;SDS011;25462;51.164;17.100;2023-06-04T22:11:22;4.40;;;2.00;;
39782;SDS011;25462;51.164;17.100;2023-06-04T22:16:27;5.10;;;2.20;;
39782;SDS011;25462;51.164;17.100;2023-06-04T22:21:31;7.10;;;2.20;;
39782;SDS011;25462;51.164;17.100;2023-06-04T22:26:36;4.50;;;2.10;;
39782;SDS011;25462;51.164;17.100;2023-06-04T22:31:41;6.10;;;1.90;;
39782;SDS011;25462;51.164;17.100;2023-06-04T22:36:45;3.80;;;1.60;;
39782;SDS011;25462;51.164;17.100;2023-06-04T22:41:49;6.20;;;2.20;;
39782;SDS011;25462;51.164;17.100;2023-06-04T22:46:53;7.60;;;2.00;;
39782;SDS011;25462;51.164;17.100;2023-06-04T22:51:57;3.70;;;1.70;;
39782;SDS011;25462;51.164;17.100;2023-06-04T22:57:02;8.50;;;2.40;;
39782;SDS011;25462;51.164;17.100;2023-06-04T23:02:05;4.40;;;1.80;;
39782;SDS011;25462;51.164;17.100;2023-06-04T23:07:10;4.30;;;1.90;;
39782;SDS011;25462;51.164;17.100;2023-06-04T23:12:13;3.90;;;1.80;;
39782;SDS011;25462;51.164;17.100;2023-06-04T23:17:17;5.70;;;2.10;;
39782;SDS011;25462;51.164;17.100;2023-06-04T23:22:21;5.70;;;2.00;;
39782;SDS011;25462;51.164;17.100;2023-06-04T23:27:26;5.10;;;1.90;;
39782;SDS011;25462;51.164;17.100;2023-06-04T23:32:31;3.40;;;1.80;;
39782;SDS011;25462;51.164;17.100;2023-06-04T23:37:34;5.10;;;1.70;;
39782;SDS011;25462;51.164;17.100;2023-06-04T23:42:39;7.00;;;1.80;;
39782;SDS011;25462;51.164;17.100;2023-06-04T23:47:43;4.30;;;2.00;;
39782;SDS011;25462;51.164;17.100;2023-06-04T23:52:47;3.20;;;1.70;;
39782;SDS011;25462;51.164;17.100;2023-06-04T23:57:52;3.90;;;2.10;;
